Terminal Aerodrome Forecast
Issued by NWS

Home | Current Version | Previous Version | Text Only | Print | Product List | Glossary On
Versions: 1 2 3 4 5 6 7 8 9 10 11 12 13 14 15 16 17 18 19 20 21
000
FTUS46 KSEW 272000 AAA
TAFPAE
TAF AMD
KPAE 272000Z 2720/2818 02006KT P6SM -RA SCT003 OVC040
      TEMPO 2720/2722 BKN003 OVC040
     FM272200 36006KT P6SM BKN030 OVC050
     FM280000 36008KT P6SM SCT030 BKN050
     FM280300 01006KT P6SM SCT050=

USA.gov is the U.S. government's official web portal to all federal, state and local government web resources and services.